sensor_id;sensor_type;location;lat;lon;timestamp;noise_LAeq;noise_LA_min;noise_LA_max;noise_LA01;noise_LA95
37833;Laerm;23678;48.778;9.160;2022-11-06T00:00:29;38.44;33.90;43.34;;
37833;Laerm;23678;48.778;9.160;2022-11-06T00:02:57;38.69;34.69;44.80;;
37833;Laerm;23678;48.778;9.160;2022-11-06T00:05:24;38.06;33.90;40.80;;
37833;Laerm;23678;48.778;9.160;2022-11-06T00:08:08;38.18;33.44;43.09;;
37833;Laerm;23678;48.778;9.160;2022-11-06T00:10:33;38.06;34.31;48.79;;
37833;Laerm;23678;48.778;9.160;2022-11-06T00:12:58;38.36;33.90;42.41;;
37833;Laerm;23678;48.778;9.160;2022-11-06T00:15:24;39.77;34.31;53.93;;
37833;Laerm;23678;48.778;9.160;2022-11-06T00:18:04;38.34;33.90;43.94;;
37833;Laerm;23678;48.778;9.160;2022-11-06T00:20:30;39.94;33.90;50.94;;
37833;Laerm;23678;48.778;9.160;2022-11-06T00:22:55;38.08;34.31;40.80;;
37833;Laerm;23678;48.778;9.160;2022-11-06T00:25:20;40.60;34.69;52.05;;
37833;Laerm;23678;48.778;9.160;2022-11-06T00:27:45;38.19;34.31;41.96;;
37833;Laerm;23678;48.778;9.160;2022-11-06T00:30:11;38.92;32.35;48.58;;
37833;Laerm;23678;48.778;9.160;2022-11-06T00:32:37;40.00;33.90;54.84;;
37833;Laerm;23678;48.778;9.160;2022-11-06T00:35:03;38.20;34.31;43.24;;
37833;Laerm;23678;48.778;9.160;2022-11-06T00:37:28;39.27;35.04;52.64;;
37833;Laerm;23678;48.778;9.160;2022-11-06T00:39:54;38.04;33.44;40.53;;
37833;Laerm;23678;48.778;9.160;2022-11-06T00:42:19;40.73;34.31;57.34;;
37833;Laerm;23678;48.778;9.160;2022-11-06T00:44:44;38.07;34.69;40.53;;
37833;Laerm;23678;48.778;9.160;2022-11-06T00:47:09;38.15;33.90;46.78;;
37833;Laerm;23678;48.778;9.160;2022-11-06T00:49:35;39.75;33.90;43.44;;
37833;Laerm;23678;48.778;9.160;2022-11-06T00:52:01;38.88;34.69;46.89;;
37833;Laerm;23678;48.778;9.160;2022-11-06T00:54:26;38.20;34.31;47.14;;
37833;Laerm;23678;48.778;9.160;2022-11-06T00:56:51;38.10;34.31;41.30;;
37833;Laerm;23678;48.778;9.160;2022-11-06T00:59:17;40.02;34.69;52.68;;
37833;Laerm;23678;48.778;9.160;2022-11-06T01:01:43;38.74;34.69;53.21;;
37833;Laerm;23678;48.778;9.160;2022-11-06T01:06:47;38.12;32.35;41.22;;
37833;Laerm;23678;48.778;9.160;2022-11-06T01:09:14;39.05;33.44;49.95;;
37833;Laerm;23678;48.778;9.160;2022-11-06T01:11:41;39.71;35.04;49.45;;
37833;Laerm;23678;48.778;9.160;2022-11-06T01:14:07;38.08;32.93;46.66;;
37833;Laerm;23678;48.778;9.160;2022-11-06T01:16:33;37.97;33.44;41.38;;
37833;Laerm;23678;48.778;9.160;2022-11-06T01:18:58;38.08;33.90;40.71;;
37833;Laerm;23678;48.778;9.160;2022-11-06T01:21:25;38.18;33.44;45.66;;
37833;Laerm;23678;48.778;9.160;2022-11-06T01:23:54;38.34;32.93;42.59;;
37833;Laerm;23678;48.778;9.160;2022-11-06T01:26:20;37.89;32.93;40.62;;
37833;Laerm;23678;48.778;9.160;2022-11-06T01:28:46;37.99;33.90;45.20;;
37833;Laerm;23678;48.778;9.160;2022-11-06T01:31:12;38.33;33.90;47.34;;
37833;Laerm;23678;48.778;9.160;2022-11-06T01:33:38;37.91;32.35;40.62;;
37833;Laerm;23678;48.778;9.160;2022-11-06T01:36:04;37.97;33.44;40.62;;
37833;Laerm;23678;48.778;9.160;2022-11-06T01:38:29;37.98;33.44;48.58;;
37833;Laerm;23678;48.778;9.160;2022-11-06T01:40:55;37.99;33.90;41.53;;
37833;Laerm;23678;48.778;9.160;2022-11-06T01:43:21;37.89;32.93;40.43;;
37833;Laerm;23678;48.778;9.160;2022-11-06T01:45:48;38.03;33.44;42.03;;
37833;Laerm;23678;48.778;9.160;2022-11-06T01:48:14;39.13;33.55;50.01;;
37833;Laerm;23678;48.778;9.160;2022-11-06T01:50:40;37.84;34.31;40.33;;
37833;Laerm;23678;48.778;9.160;2022-11-06T01:53:07;37.99;33.90;40.71;;
37833;Laerm;23678;48.778;9.160;2022-11-06T01:55:37;37.95;33.44;40.54;;
37833;Laerm;23678;48.778;9.160;2022-11-06T01:58:04;38.98;34.31;46.78;;
37833;Laerm;23678;48.778;9.160;2022-11-06T02:00:31;38.23;33.90;43.90;;
37833;Laerm;23678;48.778;9.160;2022-11-06T02:02:57;39.66;34.31;53.17;;
37833;Laerm;23678;48.778;9.160;2022-11-06T02:05:22;37.90;33.44;40.53;;
37833;Laerm;23678;48.778;9.160;2022-11-06T02:07:47;39.13;34.31;50.80;;
37833;Laerm;23678;48.778;9.160;2022-11-06T02:10:13;37.90;33.90;40.33;;
37833;Laerm;23678;48.778;9.160;2022-11-06T02:12:57;37.96;32.93;40.53;;
37833;Laerm;23678;48.778;9.160;2022-11-06T02:20:34;38.12;34.31;42.41;;
37833;Laerm;23678;48.778;9.160;2022-11-06T02:25:49;38.11;33.90;43.72;;
37833;Laerm;23678;48.778;9.160;2022-11-06T02:28:19;39.47;33.44;65.67;;
37833;Laerm;23678;48.778;9.160;2022-11-06T02:30:45;38.44;33.90;47.57;;
37833;Laerm;23678;48.778;9.160;2022-11-06T02:33:13;37.99;33.90;43.49;;
37833;Laerm;23678;48.778;9.160;2022-11-06T02:35:48;37.99;34.31;41.14;;
37833;Laerm;23678;48.778;9.160;2022-11-06T02:38:27;37.90;33.90;40.80;;
37833;Laerm;23678;48.778;9.160;2022-11-06T02:40:54;37.89;32.93;40.62;;
37833;Laerm;23678;48.778;9.160;2022-11-06T02:43:22;37.90;32.35;40.62;;
37833;Laerm;23678;48.778;9.160;2022-11-06T02:45:53;40.09;34.69;46.20;;
37833;Laerm;23678;48.778;9.160;2022-11-06T02:48:21;38.51;33.90;45.83;;
37833;Laerm;23678;48.778;9.160;2022-11-06T02:50:48;38.02;33.44;42.59;;
37833;Laerm;23678;48.778;9.160;2022-11-06T02:53:15;37.83;33.44;40.62;;
37833;Laerm;23678;48.778;9.160;2022-11-06T02:55:46;39.79;33.44;56.42;;
37833;Laerm;23678;48.778;9.160;2022-11-06T02:58:17;37.98;33.44;41.75;;
37833;Laerm;23678;48.778;9.160;2022-11-06T03:00:44;37.82;33.44;40.71;;
37833;Laerm;23678;48.778;9.160;2022-11-06T03:05:53;37.86;33.90;40.53;;
37833;Laerm;23678;48.778;9.160;2022-11-06T03:08:23;37.90;32.93;40.43;;
37833;Laerm;23678;48.778;9.160;2022-11-06T03:13:34;38.32;33.44;43.29;;
37833;Laerm;23678;48.778;9.160;2022-11-06T03:16:05;38.72;34.69;48.39;;
37833;Laerm;23678;48.778;9.160;2022-11-06T03:18:45;38.27;33.90;44.31;;
37833;Laerm;23678;48.778;9.160;2022-11-06T03:21:21;37.85;32.93;40.62;;
37833;Laerm;23678;48.778;9.160;2022-11-06T03:23:49;37.80;33.90;40.62;;
37833;Laerm;23678;48.778;9.160;2022-11-06T03:26:18;37.89;32.93;42.03;;
37833;Laerm;23678;48.778;9.160;2022-11-06T03:29:33;38.08;33.90;43.81;;
37833;Laerm;23678;48.778;9.160;2022-11-06T03:31:32;37.98;31.68;41.82;;
37833;Laerm;23678;48.778;9.160;2022-11-06T03:34:01;37.82;33.44;40.33;;
37833;Laerm;23678;48.778;9.160;2022-11-06T03:36:33;37.87;33.90;40.98;;
37833;Laerm;23678;48.778;9.160;2022-11-06T03:39:01;40.16;33.90;55.53;;
37833;Laerm;23678;48.778;9.160;2022-11-06T03:41:29;38.93;34.69;41.96;;
37833;Laerm;23678;48.778;9.160;2022-11-06T03:43:56;37.89;34.31;40.53;;
37833;Laerm;23678;48.778;9.160;2022-11-06T03:46:23;38.04;33.90;42.22;;
37833;Laerm;23678;48.778;9.160;2022-11-06T03:48:54;37.84;32.93;40.33;;
37833;Laerm;23678;48.778;9.160;2022-11-06T03:51:23;39.99;34.31;55.45;;
37833;Laerm;23678;48.778;9.160;2022-11-06T03:53:55;38.18;33.90;42.88;;
37833;Laerm;23678;48.778;9.160;2022-11-06T03:58:48;38.43;34.31;42.03;;
37833;Laerm;23678;48.778;9.160;2022-11-06T04:01:15;39.55;33.44;52.68;;
37833;Laerm;23678;48.778;9.160;2022-11-06T04:03:51;37.96;34.31;40.71;;
37833;Laerm;23678;48.778;9.160;2022-11-06T04:06:22;38.36;33.90;42.53;;
37833;Laerm;23678;48.778;9.160;2022-11-06T04:08:49;37.94;33.44;40.71;;
37833;Laerm;23678;48.778;9.160;2022-11-06T04:11:34;38.17;34.31;48.13;;
37833;Laerm;23678;48.778;9.160;2022-11-06T04:14:20;38.43;30.54;52.34;;
37833;Laerm;23678;48.778;9.160;2022-11-06T04:16:49;37.91;33.90;41.75;;
37833;Laerm;23678;48.778;9.160;2022-11-06T04:19:19;37.97;33.44;41.89;;
37833;Laerm;23678;48.778;9.160;2022-11-06T04:37:59;37.96;33.90;40.71;;
37833;Laerm;23678;48.778;9.160;2022-11-06T04:45:19;38.00;33.90;40.63;;
37833;Laerm;23678;48.778;9.160;2022-11-06T04:47:47;38.09;34.31;41.14;;
37833;Laerm;23678;48.778;9.160;2022-11-06T04:50:13;38.10;34.31;41.06;;
37833;Laerm;23678;48.778;9.160;2022-11-06T04:52:39;38.14;33.55;41.14;;
37833;Laerm;23678;48.778;9.160;2022-11-06T04:55:05;38.29;34.31;41.46;;
37833;Laerm;23678;48.778;9.160;2022-11-06T04:57:30;37.97;31.68;40.98;;
37833;Laerm;23678;48.778;9.160;2022-11-06T04:59:55;38.07;33.90;42.98;;
37833;Laerm;23678;48.778;9.160;2022-11-06T05:02:21;38.20;33.90;41.53;;
37833;Laerm;23678;48.778;9.160;2022-11-06T05:04:46;38.56;33.97;44.31;;
37833;Laerm;23678;48.778;9.160;2022-11-06T05:07:12;37.94;34.31;40.53;;
37833;Laerm;23678;48.778;9.160;2022-11-06T05:09:38;37.82;33.44;40.43;;
37833;Laerm;23678;48.778;9.160;2022-11-06T05:12:03;38.39;33.44;41.82;;
37833;Laerm;23678;48.778;9.160;2022-11-06T05:14:28;37.86;33.44;40.53;;
37833;Laerm;23678;48.778;9.160;2022-11-06T05:16:54;37.87;33.90;40.33;;
37833;Laerm;23678;48.778;9.160;2022-11-06T05:19:19;37.81;34.31;40.63;;
37833;Laerm;23678;48.778;9.160;2022-11-06T05:21:44;38.85;34.31;45.30;;
37833;Laerm;23678;48.778;9.160;2022-11-06T05:24:28;37.87;33.90;40.53;;
37833;Laerm;23678;48.778;9.160;2022-11-06T05:26:53;37.90;34.69;40.80;;
37833;Laerm;23678;48.778;9.160;2022-11-06T05:29:19;37.96;33.90;40.23;;
37833;Laerm;23678;48.778;9.160;2022-11-06T05:31:44;37.92;34.31;49.20;;
37833;Laerm;23678;48.778;9.160;2022-11-06T05:34:09;38.21;33.44;48.69;;
37833;Laerm;23678;48.778;9.160;2022-11-06T05:36:35;37.86;33.44;40.62;;
37833;Laerm;23678;48.778;9.160;2022-11-06T05:39:00;38.03;33.44;44.47;;
37833;Laerm;23678;48.778;9.160;2022-11-06T05:41:25;38.06;33.44;50.77;;
37833;Laerm;23678;48.778;9.160;2022-11-06T05:43:50;38.38;34.31;47.16;;
37833;Laerm;23678;48.778;9.160;2022-11-06T05:46:16;38.18;31.68;44.07;;
37833;Laerm;23678;48.778;9.160;2022-11-06T05:48:41;37.95;33.90;40.80;;
37833;Laerm;23678;48.778;9.160;2022-11-06T05:51:06;38.03;33.90;41.46;;
37833;Laerm;23678;48.778;9.160;2022-11-06T05:53:33;38.91;33.44;48.57;;
37833;Laerm;23678;48.778;9.160;2022-11-06T05:55:58;38.33;33.44;50.18;;
37833;Laerm;23678;48.778;9.160;2022-11-06T05:58:24;38.03;33.44;41.30;;
37833;Laerm;23678;48.778;9.160;2022-11-06T06:00:49;38.40;34.31;44.35;;
37833;Laerm;23678;48.778;9.160;2022-11-06T06:03:15;39.33;33.90;45.39;;
37833;Laerm;23678;48.778;9.160;2022-11-06T06:05:40;38.62;34.69;43.34;;
37833;Laerm;23678;48.778;9.160;2022-11-06T06:08:05;38.15;34.69;40.98;;
37833;Laerm;23678;48.778;9.160;2022-11-06T06:10:31;37.88;33.55;40.33;;
37833;Laerm;23678;48.778;9.160;2022-11-06T06:12:56;37.97;34.31;40.71;;
37833;Laerm;23678;48.778;9.160;2022-11-06T06:15:21;38.98;34.69;49.20;;
37833;Laerm;23678;48.778;9.160;2022-11-06T06:17:46;38.35;32.93;44.39;;
37833;Laerm;23678;48.778;9.160;2022-11-06T06:20:12;38.85;31.68;48.07;;
37833;Laerm;23678;48.778;9.160;2022-11-06T06:22:38;38.06;32.93;41.14;;
37833;Laerm;23678;48.778;9.160;2022-11-06T06:25:03;38.44;32.93;43.68;;
37833;Laerm;23678;48.778;9.160;2022-11-06T06:27:29;38.30;34.31;51.38;;
37833;Laerm;23678;48.778;9.160;2022-11-06T06:29:55;37.80;33.44;40.62;;
37833;Laerm;23678;48.778;9.160;2022-11-06T06:32:20;38.45;34.31;55.21;;
37833;Laerm;23678;48.778;9.160;2022-11-06T06:34:45;38.52;33.44;43.49;;
37833;Laerm;23678;48.778;9.160;2022-11-06T06:37:11;38.02;34.31;41.75;;
37833;Laerm;23678;48.778;9.160;2022-11-06T06:39:36;38.07;33.90;50.52;;
37833;Laerm;23678;48.778;9.160;2022-11-06T06:42:01;38.71;34.69;42.16;;
37833;Laerm;23678;48.778;9.160;2022-11-06T06:44:27;40.12;33.44;52.75;;
37833;Laerm;23678;48.778;9.160;2022-11-06T06:46:52;37.91;33.44;40.53;;
37833;Laerm;23678;48.778;9.160;2022-11-06T06:49:17;37.98;33.44;41.38;;
37833;Laerm;23678;48.778;9.160;2022-11-06T06:51:43;38.87;33.44;46.41;;
37833;Laerm;23678;48.778;9.160;2022-11-06T06:54:08;38.20;34.31;41.30;;
37833;Laerm;23678;48.778;9.160;2022-11-06T06:56:40;37.99;33.90;40.80;;
37833;Laerm;23678;48.778;9.160;2022-11-06T06:59:06;37.91;33.44;40.80;;
37833;Laerm;23678;48.778;9.160;2022-11-06T07:01:31;38.57;34.69;47.90;;
37833;Laerm;23678;48.778;9.160;2022-11-06T07:03:57;37.91;33.97;40.80;;
37833;Laerm;23678;48.778;9.160;2022-11-06T07:06:22;38.13;33.44;43.09;;
37833;Laerm;23678;48.778;9.160;2022-11-06T07:08:48;38.40;33.90;43.97;;
37833;Laerm;23678;48.778;9.160;2022-11-06T07:11:14;38.14;33.90;41.06;;
37833;Laerm;23678;48.778;9.160;2022-11-06T07:13:39;38.57;34.69;43.49;;
37833;Laerm;23678;48.778;9.160;2022-11-06T07:16:05;38.91;34.69;42.35;;
37833;Laerm;23678;48.778;9.160;2022-11-06T07:18:31;38.24;34.69;41.82;;
37833;Laerm;23678;48.778;9.160;2022-11-06T07:20:56;38.39;33.90;42.65;;
37833;Laerm;23678;48.778;9.160;2022-11-06T07:23:22;38.80;34.31;49.78;;
37833;Laerm;23678;48.778;9.160;2022-11-06T07:25:50;38.98;33.90;46.77;;
37833;Laerm;23678;48.778;9.160;2022-11-06T07:28:16;40.07;31.68;51.82;;
37833;Laerm;23678;48.778;9.160;2022-11-06T07:30:42;38.70;35.01;42.93;;
37833;Laerm;23678;48.778;9.160;2022-11-06T07:33:07;40.08;35.36;52.14;;
37833;Laerm;23678;48.778;9.160;2022-11-06T07:35:32;38.98;33.90;46.62;;
37833;Laerm;23678;48.778;9.160;2022-11-06T07:38:01;40.52;34.69;56.32;;
37833;Laerm;23678;48.778;9.160;2022-11-06T07:40:27;38.24;34.31;40.98;;
37833;Laerm;23678;48.778;9.160;2022-11-06T07:42:52;38.32;34.69;44.27;;
37833;Laerm;23678;48.778;9.160;2022-11-06T07:45:17;38.60;34.69;41.30;;
37833;Laerm;23678;48.778;9.160;2022-11-06T07:47:43;38.30;34.69;41.06;;
37833;Laerm;23678;48.778;9.160;2022-11-06T07:50:08;40.03;34.69;50.27;;
37833;Laerm;23678;48.778;9.160;2022-11-06T07:52:33;39.29;34.69;50.18;;
37833;Laerm;23678;48.778;9.160;2022-11-06T07:54:59;39.71;34.31;51.37;;
37833;Laerm;23678;48.778;9.160;2022-11-06T07:57:24;40.04;34.31;61.58;;
37833;Laerm;23678;48.778;9.160;2022-11-06T07:59:49;39.74;34.69;57.10;;
37833;Laerm;23678;48.778;9.160;2022-11-06T08:02:15;39.35;34.31;45.11;;
37833;Laerm;23678;48.778;9.160;2022-11-06T08:04:41;38.70;35.01;45.14;;
37833;Laerm;23678;48.778;9.160;2022-11-06T08:07:06;38.71;34.31;43.77;;
37833;Laerm;23678;48.778;9.160;2022-11-06T08:09:32;39.45;35.04;47.52;;
37833;Laerm;23678;48.778;9.160;2022-11-06T08:11:57;39.43;35.36;52.88;;
37833;Laerm;23678;48.778;9.160;2022-11-06T08:14:22;40.70;35.04;56.99;;
37833;Laerm;23678;48.778;9.160;2022-11-06T08:16:48;39.37;35.31;48.28;;
37833;Laerm;23678;48.778;9.160;2022-11-06T08:19:13;41.38;37.52;52.13;;
37833;Laerm;23678;48.778;9.160;2022-11-06T08:21:39;40.80;36.91;48.21;;
37833;Laerm;23678;48.778;9.160;2022-11-06T08:24:04;40.81;35.66;52.51;;
37833;Laerm;23678;48.778;9.160;2022-11-06T08:26:29;39.06;35.66;44.62;;
37833;Laerm;23678;48.778;9.160;2022-11-06T08:28:55;38.89;35.04;42.16;;
37833;Laerm;23678;48.778;9.160;2022-11-06T08:31:21;39.37;34.31;43.63;;
37833;Laerm;23678;48.778;9.160;2022-11-06T08:33:47;38.98;35.36;42.82;;
37833;Laerm;23678;48.778;9.160;2022-11-06T08:36:12;39.26;35.36;42.93;;
37833;Laerm;23678;48.778;9.160;2022-11-06T08:38:37;40.18;35.66;51.32;;
37833;Laerm;23678;48.778;9.160;2022-11-06T08:41:04;40.29;37.12;46.40;;
37833;Laerm;23678;48.778;9.160;2022-11-06T08:43:29;41.32;36.91;53.17;;
37833;Laerm;23678;48.778;9.160;2022-11-06T08:45:54;40.69;36.45;53.15;;
37833;Laerm;23678;48.778;9.160;2022-11-06T08:48:20;38.61;35.04;44.76;;
37833;Laerm;23678;48.778;9.160;2022-11-06T08:50:45;39.48;33.44;47.77;;
37833;Laerm;23678;48.778;9.160;2022-11-06T08:53:10;40.81;36.69;51.55;;
37833;Laerm;23678;48.778;9.160;2022-11-06T08:55:37;41.77;38.05;47.42;;
37833;Laerm;23678;48.778;9.160;2022-11-06T08:58:03;43.05;38.21;53.70;;
37833;Laerm;23678;48.778;9.160;2022-11-06T09:00:29;42.22;35.94;56.09;;
37833;Laerm;23678;48.778;9.160;2022-11-06T09:02:58;39.21;35.36;43.54;;
37833;Laerm;23678;48.778;9.160;2022-11-06T09:05:23;40.04;35.36;52.58;;
37833;Laerm;23678;48.778;9.160;2022-11-06T09:07:48;39.31;34.69;49.04;;
37833;Laerm;23678;48.778;9.160;2022-11-06T09:10:14;40.40;35.04;54.56;;
37833;Laerm;23678;48.778;9.160;2022-11-06T09:12:39;41.79;35.04;56.70;;
37833;Laerm;23678;48.778;9.160;2022-11-06T09:15:14;39.38;35.36;45.80;;
37833;Laerm;23678;48.778;9.160;2022-11-06T09:17:46;39.49;34.31;49.95;;
37833;Laerm;23678;48.778;9.160;2022-11-06T09:20:12;38.72;34.69;43.90;;
37833;Laerm;23678;48.778;9.160;2022-11-06T09:22:37;41.16;34.31;52.88;;
37833;Laerm;23678;48.778;9.160;2022-11-06T09:25:03;40.24;35.36;53.26;;
37833;Laerm;23678;48.778;9.160;2022-11-06T09:27:28;42.12;35.36;57.77;;
37833;Laerm;23678;48.778;9.160;2022-11-06T09:29:54;39.97;35.04;47.57;;
37833;Laerm;23678;48.778;9.160;2022-11-06T09:32:19;39.93;35.66;49.60;;
37833;Laerm;23678;48.778;9.160;2022-11-06T09:34:44;38.94;35.04;42.76;;
37833;Laerm;23678;48.778;9.160;2022-11-06T09:37:09;38.67;35.36;44.47;;
37833;Laerm;23678;48.778;9.160;2022-11-06T09:39:35;41.98;35.04;57.41;;
37833;Laerm;23678;48.778;9.160;2022-11-06T09:42:01;39.14;35.36;42.41;;
37833;Laerm;23678;48.778;9.160;2022-11-06T09:46:55;40.07;35.66;47.91;;
37833;Laerm;23678;48.778;9.160;2022-11-06T09:49:31;40.43;37.32;45.66;;
37833;Laerm;23678;48.778;9.160;2022-11-06T09:52:03;40.13;36.69;42.82;;
37833;Laerm;23678;48.778;9.160;2022-11-06T09:57:00;39.10;35.36;43.49;;
37833;Laerm;23678;48.778;9.160;2022-11-06T09:59:27;40.67;35.66;47.30;;
37833;Laerm;23678;48.778;9.160;2022-11-06T10:01:56;38.91;34.31;43.72;;
37833;Laerm;23678;48.778;9.160;2022-11-06T10:06:49;39.28;35.36;45.99;;
37833;Laerm;23678;48.778;9.160;2022-11-06T10:09:14;39.07;34.69;42.36;;
37833;Laerm;23678;48.778;9.160;2022-11-06T10:14:26;40.57;34.69;49.50;;
37833;Laerm;23678;48.778;9.160;2022-11-06T10:22:10;39.02;34.69;47.24;;
37833;Laerm;23678;48.778;9.160;2022-11-06T10:27:18;40.77;36.20;46.30;;
37833;Laerm;23678;48.778;9.160;2022-11-06T10:29:59;39.26;35.36;43.68;;
37833;Laerm;23678;48.778;9.160;2022-11-06T10:35:24;39.41;34.31;46.87;;
37833;Laerm;23678;48.778;9.160;2022-11-06T10:37:54;40.13;34.69;49.70;;
37833;Laerm;23678;48.778;9.160;2022-11-06T10:40:23;39.20;35.36;51.97;;
37833;Laerm;23678;48.778;9.160;2022-11-06T10:45:33;40.84;35.36;48.63;;
37833;Laerm;23678;48.778;9.160;2022-11-06T10:48:01;41.15;35.94;51.20;;
37833;Laerm;23678;48.778;9.160;2022-11-06T10:50:37;39.64;35.04;45.89;;
37833;Laerm;23678;48.778;9.160;2022-11-06T10:53:07;39.38;35.36;43.49;;
37833;Laerm;23678;48.778;9.160;2022-11-06T10:55:54;40.45;34.69;52.08;;
37833;Laerm;23678;48.778;9.160;2022-11-06T10:58:22;41.56;35.04;53.38;;
37833;Laerm;23678;48.778;9.160;2022-11-06T11:00:50;41.32;35.66;52.02;;
37833;Laerm;23678;48.778;9.160;2022-11-06T11:05:42;40.99;34.31;51.38;;
37833;Laerm;23678;48.778;9.160;2022-11-06T11:10:52;39.85;35.94;52.38;;
37833;Laerm;23678;48.778;9.160;2022-11-06T11:13:24;39.64;34.69;54.53;;
37833;Laerm;23678;48.778;9.160;2022-11-06T11:15:50;41.29;35.36;55.99;;
37833;Laerm;23678;48.778;9.160;2022-11-06T11:18:16;41.70;36.45;56.02;;
37833;Laerm;23678;48.778;9.160;2022-11-06T11:20:43;40.96;35.94;48.39;;
37833;Laerm;23678;48.778;9.160;2022-11-06T11:23:13;41.45;35.66;54.37;;
37833;Laerm;23678;48.778;9.160;2022-11-06T11:25:40;40.41;35.36;45.94;;
37833;Laerm;23678;48.778;9.160;2022-11-06T11:28:10;40.19;34.69;59.04;;
37833;Laerm;23678;48.778;9.160;2022-11-06T11:30:36;41.54;35.94;58.25;;
37833;Laerm;23678;48.778;9.160;2022-11-06T11:33:01;39.51;34.69;47.18;;
37833;Laerm;23678;48.778;9.160;2022-11-06T11:35:48;40.20;35.36;48.20;;
37833;Laerm;23678;48.778;9.160;2022-11-06T11:38:16;40.73;35.59;51.43;;
37833;Laerm;23678;48.778;9.160;2022-11-06T11:40:43;40.86;35.36;52.86;;
37833;Laerm;23678;48.778;9.160;2022-11-06T11:48:56;40.24;34.31;52.44;;
37833;Laerm;23678;48.778;9.160;2022-11-06T11:53:54;41.39;35.36;62.61;;
37833;Laerm;23678;48.778;9.160;2022-11-06T11:56:20;39.61;35.04;48.92;;
37833;Laerm;23678;48.778;9.160;2022-11-06T11:58:54;42.07;35.94;55.87;;
37833;Laerm;23678;48.778;9.160;2022-11-06T12:01:29;40.48;35.94;47.40;;
37833;Laerm;23678;48.778;9.160;2022-11-06T12:03:57;42.35;35.94;55.33;;
37833;Laerm;23678;48.778;9.160;2022-11-06T12:06:23;40.16;35.66;50.34;;
37833;Laerm;23678;48.778;9.160;2022-11-06T12:08:49;39.91;35.66;49.15;;
37833;Laerm;23678;48.778;9.160;2022-11-06T12:11:26;40.12;35.66;48.73;;
37833;Laerm;23678;48.778;9.160;2022-11-06T12:14:15;40.77;35.36;49.66;;
37833;Laerm;23678;48.778;9.160;2022-11-06T12:16:40;40.27;35.36;50.93;;
37833;Laerm;23678;48.778;9.160;2022-11-06T12:19:07;39.18;34.31;46.13;;
37833;Laerm;23678;48.778;9.160;2022-11-06T12:21:33;40.98;34.69;48.15;;
37833;Laerm;23678;48.778;9.160;2022-11-06T12:26:36;42.46;35.66;52.29;;
37833;Laerm;23678;48.778;9.160;2022-11-06T12:29:09;39.34;35.36;45.80;;
37833;Laerm;23678;48.778;9.160;2022-11-06T12:34:16;39.38;35.04;47.46;;
37833;Laerm;23678;48.778;9.160;2022-11-06T12:36:45;39.64;34.31;57.64;;
37833;Laerm;23678;48.778;9.160;2022-11-06T12:39:15;40.01;35.04;51.60;;
37833;Laerm;23678;48.778;9.160;2022-11-06T12:41:44;39.85;35.36;50.63;;
37833;Laerm;23678;48.778;9.160;2022-11-06T12:44:11;40.16;35.31;53.05;;
37833;Laerm;23678;48.778;9.160;2022-11-06T12:49:13;39.54;34.31;45.60;;
37833;Laerm;23678;48.778;9.160;2022-11-06T12:56:56;39.50;35.66;43.29;;
37833;Laerm;23678;48.778;9.160;2022-11-06T12:59:31;39.48;35.66;47.40;;
37833;Laerm;23678;48.778;9.160;2022-11-06T13:10:00;39.90;35.01;58.76;;
37833;Laerm;23678;48.778;9.160;2022-11-06T13:17:31;41.29;35.66;51.80;;
37833;Laerm;23678;48.778;9.160;2022-11-06T13:20:06;40.24;35.36;48.73;;
37833;Laerm;23678;48.778;9.160;2022-11-06T13:22:41;39.87;35.36;47.40;;
37833;Laerm;23678;48.778;9.160;2022-11-06T13:27:36;42.64;35.59;60.92;;
37833;Laerm;23678;48.778;9.160;2022-11-06T13:30:09;40.38;35.59;60.58;;
37833;Laerm;23678;48.778;9.160;2022-11-06T13:32:37;41.26;36.69;50.78;;
37833;Laerm;23678;48.778;9.160;2022-11-06T13:35:04;42.59;35.66;46.69;;
37833;Laerm;23678;48.778;9.160;2022-11-06T13:37:40;40.24;34.69;46.43;;
37833;Laerm;23678;48.778;9.160;2022-11-06T13:42:40;41.81;35.94;54.67;;
37833;Laerm;23678;48.778;9.160;2022-11-06T13:45:07;41.06;35.94;50.38;;
37833;Laerm;23678;48.778;9.160;2022-11-06T13:50:17;41.27;35.94;52.40;;
37833;Laerm;23678;48.778;9.160;2022-11-06T13:52:51;39.53;35.01;45.36;;
37833;Laerm;23678;48.778;9.160;2022-11-06T13:57:56;40.85;35.86;52.06;;
37833;Laerm;23678;48.778;9.160;2022-11-06T14:05:50;41.44;35.66;50.29;;
37833;Laerm;23678;48.778;9.160;2022-11-06T14:10:49;43.00;35.04;55.51;;
37833;Laerm;23678;48.778;9.160;2022-11-06T14:13:17;41.50;35.36;53.99;;
37833;Laerm;23678;48.778;9.160;2022-11-06T14:15:47;40.38;35.04;53.69;;
37833;Laerm;23678;48.778;9.160;2022-11-06T14:18:19;40.31;35.66;46.55;;
37833;Laerm;23678;48.778;9.160;2022-11-06T14:20:45;39.64;34.31;45.11;;
37833;Laerm;23678;48.778;9.160;2022-11-06T14:26:12;39.61;35.36;45.63;;
37833;Laerm;23678;48.778;9.160;2022-11-06T14:28:38;39.49;35.36;53.93;;
37833;Laerm;23678;48.778;9.160;2022-11-06T14:31:04;39.04;33.90;43.54;;
37833;Laerm;23678;48.778;9.160;2022-11-06T14:36:11;40.86;33.90;55.19;;
37833;Laerm;23678;48.778;9.160;2022-11-06T14:38:37;40.83;35.04;50.28;;
37833;Laerm;23678;48.778;9.160;2022-11-06T14:41:45;39.52;34.69;44.79;;
37833;Laerm;23678;48.778;9.160;2022-11-06T14:43:48;41.93;35.66;57.07;;
37833;Laerm;23678;48.778;9.160;2022-11-06T14:46:18;42.14;35.59;56.83;;
37833;Laerm;23678;48.778;9.160;2022-11-06T14:48:46;39.42;35.36;48.01;;
37833;Laerm;23678;48.778;9.160;2022-11-06T14:51:12;39.44;34.31;47.60;;
37833;Laerm;23678;48.778;9.160;2022-11-06T14:53:48;39.96;35.66;49.66;;
37833;Laerm;23678;48.778;9.160;2022-11-06T14:56:20;41.97;35.94;50.98;;
37833;Laerm;23678;48.778;9.160;2022-11-06T14:58:47;40.90;35.66;49.12;;
37833;Laerm;23678;48.778;9.160;2022-11-06T15:01:15;40.91;34.69;58.20;;
37833;Laerm;23678;48.778;9.160;2022-11-06T15:13:54;39.55;35.04;45.60;;
37833;Laerm;23678;48.778;9.160;2022-11-06T15:16:19;39.37;34.31;45.75;;
37833;Laerm;23678;48.778;9.160;2022-11-06T15:18:45;40.77;35.04;49.03;;
37833;Laerm;23678;48.778;9.160;2022-11-06T15:21:14;40.75;35.36;51.23;;
37833;Laerm;23678;48.778;9.160;2022-11-06T15:23:51;41.06;34.69;50.31;;
37833;Laerm;23678;48.778;9.160;2022-11-06T15:26:26;40.08;36.20;50.74;;
37833;Laerm;23678;48.778;9.160;2022-11-06T15:31:23;41.20;35.66;49.89;;
37833;Laerm;23678;48.778;9.160;2022-11-06T15:33:59;39.98;35.04;49.44;;
37833;Laerm;23678;48.778;9.160;2022-11-06T15:36:26;40.50;35.01;51.48;;
37833;Laerm;23678;48.778;9.160;2022-11-06T15:38:52;40.09;35.94;48.87;;
37833;Laerm;23678;48.778;9.160;2022-11-06T15:41:21;39.72;35.36;47.18;;
37833;Laerm;23678;48.778;9.160;2022-11-06T15:43:48;40.94;35.66;54.92;;
37833;Laerm;23678;48.778;9.160;2022-11-06T15:46:15;41.10;35.94;49.95;;
37833;Laerm;23678;48.778;9.160;2022-11-06T15:48:42;39.18;34.69;47.61;;
37833;Laerm;23678;48.778;9.160;2022-11-06T15:54:02;39.92;35.59;51.57;;
37833;Laerm;23678;48.778;9.160;2022-11-06T15:56:31;40.91;35.94;59.98;;
37833;Laerm;23678;48.778;9.160;2022-11-06T15:59:05;40.85;35.04;54.97;;
37833;Laerm;23678;48.778;9.160;2022-11-06T16:01:31;41.64;35.36;54.58;;
37833;Laerm;23678;48.778;9.160;2022-11-06T16:03:57;39.24;35.66;54.10;;
37833;Laerm;23678;48.778;9.160;2022-11-06T16:06:23;40.98;35.94;50.27;;
37833;Laerm;23678;48.778;9.160;2022-11-06T16:08:49;43.21;36.45;58.28;;